createdAt,value
2022-09-28T00:00:12.875Z,59.71
2022-09-28T00:01:44.855Z,60.16
2022-09-28T00:03:16.530Z,60.35
2022-09-28T00:04:48.275Z,59.96
2022-09-28T00:06:21.998Z,59.94
2022-09-28T00:07:54.241Z,60.01
2022-09-28T00:09:26.323Z,60.01
2022-09-28T00:10:57.986Z,60.20
2022-09-28T00:12:35.196Z,59.90
2022-09-28T00:14:07.892Z,60.41
2022-09-28T00:15:42.130Z,60.03
2022-09-28T00:17:14.149Z,60.09
2022-09-28T00:18:45.884Z,59.86
2022-09-28T00:20:18.173Z,59.63
2022-09-28T00:21:52.517Z,59.82
2022-09-28T00:23:24.049Z,60.33
2022-09-28T00:24:55.590Z,60.39
2022-09-28T00:26:27.611Z,59.90
2022-09-28T00:27:59.257Z,60.14
2022-09-28T00:29:31.866Z,60.24
2022-09-28T00:31:03.502Z,59.91
2022-09-28T00:32:35.383Z,59.73
2022-09-28T00:34:07.344Z,59.55
2022-09-28T00:35:39.342Z,59.98
2022-09-28T00:37:11.104Z,59.87
2022-09-28T00:38:43.022Z,59.82
2022-09-28T00:40:14.715Z,60.04
2022-09-28T00:41:47.155Z,59.67
2022-09-28T00:43:22.349Z,59.96
2022-09-28T00:44:54.536Z,59.84
2022-09-28T00:46:31.774Z,59.83
2022-09-28T00:48:03.819Z,59.97
2022-09-28T00:49:42.019Z,59.64
2022-09-28T00:51:14.077Z,59.88
2022-09-28T00:52:49.099Z,59.42
2022-09-28T00:54:20.564Z,59.67
2022-09-28T00:55:52.947Z,59.77
2022-09-28T00:57:24.627Z,59.70
2022-09-28T00:58:56.541Z,59.80
2022-09-28T01:00:28.115Z,60.04
2022-09-28T01:02:00.026Z,59.95
2022-09-28T01:03:32.017Z,59.80
2022-09-28T01:05:03.723Z,59.85
2022-09-28T01:06:36.637Z,59.77
2022-09-28T01:08:08.732Z,60.47
2022-09-28T01:09:40.795Z,60.08
2022-09-28T01:11:13.062Z,60.24
2022-09-28T01:12:44.611Z,60.42
2022-09-28T01:14:16.735Z,60.29
2022-09-28T01:15:50.247Z,60.43
2022-09-28T01:17:28.615Z,60.22
2022-09-28T01:19:05.874Z,60.67
2022-09-28T01:20:43.601Z,60.24
2022-09-28T01:22:33.766Z,60.30
2022-09-28T01:24:14.058Z,60.50
2022-09-28T01:25:48.525Z,60.18
2022-09-28T01:27:20.320Z,60.51
2022-09-28T01:29:01.031Z,60.49
2022-09-28T01:30:34.850Z,60.27
2022-09-28T01:32:14.796Z,60.23
2022-09-28T01:33:47.665Z,60.16
2022-09-28T01:35:25.446Z,60.44
2022-09-28T01:36:57.034Z,60.21
2022-09-28T01:38:59.031Z,60.07
2022-09-28T01:40:30.563Z,60.10
2022-09-28T01:42:06.436Z,60.06
2022-09-28T01:43:39.470Z,60.28
2022-09-28T01:45:19.106Z,60.43
2022-09-28T01:46:54.103Z,60.27
2022-09-28T01:48:46.918Z,60.70
2022-09-28T01:50:19.482Z,60.13
2022-09-28T01:51:52.748Z,60.25
2022-09-28T01:53:35.165Z,60.49
2022-09-28T01:55:06.920Z,60.53
2022-09-28T01:56:39.519Z,60.25
2022-09-28T01:58:14.085Z,60.32
2022-09-28T01:59:47.980Z,60.60
2022-09-28T02:01:22.797Z,60.51
2022-09-28T02:03:13.454Z,60.40
2022-09-28T02:04:45.577Z,60.34
2022-09-28T02:06:19.220Z,60.42
2022-09-28T02:07:54.925Z,60.95
2022-09-28T02:09:33.566Z,60.51
2022-09-28T02:11:05.763Z,60.52
2022-09-28T02:13:00.532Z,60.50
2022-09-28T02:14:32.147Z,60.36
2022-09-28T02:16:05.903Z,60.67
2022-09-28T02:17:37.617Z,60.59
2022-09-28T02:19:13.458Z,60.83
2022-09-28T02:20:47.799Z,60.91
2022-09-28T02:22:26.111Z,61.26
2022-09-28T02:23:58.404Z,61.25
2022-09-28T02:25:48.639Z,61.15
2022-09-28T02:27:40.738Z,61.11
2022-09-28T02:29:13.108Z,61.00
2022-09-28T02:30:44.681Z,61.02
2022-09-28T02:32:17.066Z,60.82
2022-09-28T02:33:48.686Z,60.96
2022-09-28T02:35:20.654Z,60.96
2022-09-28T02:36:55.356Z,60.99
2022-09-28T02:38:27.551Z,60.76
2022-09-28T02:39:59.155Z,60.82
2022-09-28T02:41:42.212Z,61.10
2022-09-28T02:43:23.983Z,61.00
2022-09-28T02:45:16.290Z,61.09
2022-09-28T02:46:51.262Z,61.22
2022-09-28T02:48:44.080Z,61.25
2022-09-28T02:50:35.931Z,60.82
2022-09-28T02:52:13.896Z,61.02
2022-09-28T02:53:49.310Z,61.26
2022-09-28T02:55:26.771Z,60.86
2022-09-28T02:57:12.758Z,60.79
2022-09-28T02:58:44.405Z,60.70
2022-09-28T03:00:19.100Z,61.28
2022-09-28T03:02:11.058Z,61.34
2022-09-28T03:03:42.834Z,61.04
2022-09-28T03:05:16.063Z,61.32
2022-09-28T03:06:48.849Z,61.08
2022-09-28T03:08:37.785Z,61.62
2022-09-28T03:10:31.079Z,61.53
2022-09-28T03:12:12.458Z,61.48
2022-09-28T03:13:43.952Z,61.28
2022-09-28T03:15:25.642Z,61.25
2022-09-28T03:16:57.356Z,61.06
2022-09-28T03:18:29.528Z,61.07
2022-09-28T03:20:01.144Z,61.41
2022-09-28T03:21:32.644Z,61.24
2022-09-28T03:23:23.906Z,61.08
2022-09-28T03:24:56.148Z,61.14
2022-09-28T03:26:27.828Z,61.27
2022-09-28T03:27:59.759Z,61.26
2022-09-28T03:29:33.323Z,61.17
2022-09-28T03:31:05.186Z,61.14
2022-09-28T03:32:37.259Z,61.23
2022-09-28T03:34:09.034Z,61.38
2022-09-28T03:35:41.109Z,61.32
2022-09-28T03:37:12.731Z,61.37
2022-09-28T03:38:44.462Z,61.24
2022-09-28T03:40:16.024Z,61.11
2022-09-28T03:41:47.895Z,61.45
2022-09-28T03:43:19.416Z,61.08
2022-09-28T03:44:51.081Z,61.52
2022-09-28T03:46:22.806Z,61.86
2022-09-28T03:47:54.445Z,61.44
2022-09-28T03:49:25.976Z,61.40
2022-09-28T03:50:58.011Z,61.67
2022-09-28T03:52:29.614Z,61.49
2022-09-28T03:54:01.414Z,61.69
2022-09-28T03:55:32.979Z,61.22
2022-09-28T03:57:04.625Z,61.42
2022-09-28T03:58:36.371Z,61.72
2022-09-28T04:00:08.407Z,61.24
2022-09-28T04:01:40.174Z,61.58
2022-09-28T04:03:11.762Z,61.51
2022-09-28T04:04:43.584Z,61.84
2022-09-28T04:06:15.162Z,61.86
2022-09-28T04:07:46.924Z,61.47
2022-09-28T04:09:18.874Z,61.32
2022-09-28T04:10:50.542Z,61.30
2022-09-28T04:12:22.142Z,61.56
2022-09-28T04:13:53.708Z,61.73
2022-09-28T04:15:25.314Z,61.32
2022-09-28T04:16:57.134Z,61.50
2022-09-28T04:18:28.911Z,61.80
2022-09-28T04:20:00.405Z,61.63
2022-09-28T04:21:31.964Z,61.47
2022-09-28T04:23:03.803Z,61.74
2022-09-28T04:24:35.470Z,61.49
2022-09-28T04:26:08.043Z,61.36
2022-09-28T04:27:58.998Z,61.61
2022-09-28T04:29:31.409Z,61.23
2022-09-28T04:31:03.498Z,61.55
2022-09-28T04:32:35.225Z,61.21
2022-09-28T04:34:07.031Z,61.40
2022-09-28T04:35:38.712Z,61.55
2022-09-28T04:37:10.557Z,62.05
2022-09-28T04:38:52.874Z,61.86
2022-09-28T04:40:25.228Z,61.72
2022-09-28T04:41:56.785Z,61.78
2022-09-28T04:43:28.916Z,61.77
2022-09-28T04:45:01.156Z,61.65
2022-09-28T04:46:32.719Z,61.59
2022-09-28T04:48:06.305Z,61.72
2022-09-28T04:49:38.579Z,61.66
2022-09-28T04:51:10.183Z,62.00
2022-09-28T04:52:41.689Z,61.89
2022-09-28T04:54:13.222Z,61.97
2022-09-28T04:55:45.232Z,61.90
2022-09-28T04:57:16.857Z,61.34
2022-09-28T04:58:52.623Z,61.34
2022-09-28T05:00:24.552Z,61.68
2022-09-28T05:01:56.145Z,61.53
2022-09-28T05:03:27.689Z,61.63
2022-09-28T05:04:59.344Z,61.51
2022-09-28T05:06:30.947Z,61.93
2022-09-28T05:08:02.572Z,61.67
2022-09-28T05:09:38.241Z,61.50
2022-09-28T05:11:13.651Z,62.04
2022-09-28T05:12:46.153Z,62.08
2022-09-28T05:14:17.725Z,61.45
2022-09-28T05:15:54.869Z,61.95
2022-09-28T05:17:29.105Z,62.15
2022-09-28T05:19:00.743Z,62.22
2022-09-28T05:20:32.412Z,61.85
2022-09-28T05:22:04.930Z,61.97
2022-09-28T05:23:37.380Z,61.82
2022-09-28T05:25:09.624Z,61.54
2022-09-28T05:26:41.276Z,61.63
2022-09-28T05:28:13.816Z,61.58
2022-09-28T05:29:46.121Z,61.36
2022-09-28T05:31:17.735Z,61.22
2022-09-28T05:32:52.029Z,61.06
2022-09-28T05:34:24.830Z,61.11
2022-09-28T05:36:00.918Z,61.33
2022-09-28T05:37:33.026Z,61.35
2022-09-28T05:39:04.956Z,61.39
2022-09-28T05:40:36.489Z,61.34
2022-09-28T05:42:08.248Z,61.50
2022-09-28T05:43:39.914Z,61.50
2022-09-28T05:45:11.540Z,61.62
2022-09-28T05:46:43.307Z,61.53
2022-09-28T05:48:14.840Z,61.57
2022-09-28T05:49:46.386Z,61.68
2022-09-28T05:51:18.083Z,61.73
2022-09-28T05:53:01.588Z,61.75
2022-09-28T05:54:33.111Z,61.77
2022-09-28T05:56:04.698Z,61.68
2022-09-28T05:57:36.272Z,61.66
2022-09-28T05:59:07.946Z,61.51
2022-09-28T06:00:39.555Z,61.72
2022-09-28T06:02:11.264Z,61.42
2022-09-28T06:03:42.865Z,61.43
2022-09-28T06:05:14.499Z,61.39
2022-09-28T06:06:46.031Z,61.33
2022-09-28T06:08:17.594Z,61.50
2022-09-28T06:09:50.496Z,61.53
2022-09-28T06:11:22.135Z,61.42
2022-09-28T06:12:57.218Z,61.46
2022-09-28T06:14:28.839Z,61.24
2022-09-28T06:16:01.241Z,61.00
2022-09-28T06:17:32.753Z,60.86
2022-09-28T06:19:04.339Z,60.68
2022-09-28T06:20:36.793Z,60.59
2022-09-28T06:22:08.973Z,60.39
2022-09-28T06:23:42.716Z,60.16
2022-09-28T06:25:16.235Z,60.00
2022-09-28T06:26:47.878Z,60.19
2022-09-28T06:28:19.461Z,60.34
2022-09-28T06:29:51.029Z,60.31
2022-09-28T06:31:24.597Z,60.30
2022-09-28T06:32:56.566Z,60.24
2022-09-28T06:34:30.112Z,59.92
2022-09-28T06:36:01.932Z,59.85
2022-09-28T06:37:33.493Z,59.99
2022-09-28T06:39:05.044Z,60.02
2022-09-28T06:40:37.381Z,59.56
2022-09-28T06:42:09.024Z,59.57
2022-09-28T06:43:40.631Z,59.42
2022-09-28T06:45:12.541Z,59.44
2022-09-28T06:46:44.464Z,59.50
2022-09-28T06:48:17.672Z,59.34
2022-09-28T06:49:51.535Z,59.07
2022-09-28T06:51:23.211Z,58.82
2022-09-28T06:52:57.697Z,58.46
2022-09-28T06:54:31.595Z,58.07
2022-09-28T06:56:03.294Z,57.97
2022-09-28T06:57:38.935Z,57.67
2022-09-28T06:59:11.098Z,57.37
2022-09-28T07:00:44.163Z,57.13
2022-09-28T07:02:18.400Z,57.00
2022-09-28T07:03:54.842Z,56.98
2022-09-28T07:05:27.833Z,57.07
2022-09-28T07:07:02.725Z,57.06
2022-09-28T07:08:34.280Z,56.99
2022-09-28T07:10:06.548Z,56.97
2022-09-28T07:11:39.995Z,56.95
2022-09-28T07:13:29.834Z,56.91
2022-09-28T07:15:03.955Z,56.77
2022-09-28T07:17:03.691Z,56.39
2022-09-28T07:18:30.119Z,56.16
2022-09-28T07:20:11.942Z,56.05
2022-09-28T07:21:58.900Z,55.89
2022-09-28T07:23:37.607Z,55.76
2022-09-28T07:25:14.426Z,55.62
2022-09-28T07:26:46.060Z,55.54
2022-09-28T07:28:17.849Z,55.44
2022-09-28T07:29:50.014Z,55.28
2022-09-28T07:31:21.600Z,55.27
2022-09-28T07:32:56.239Z,55.49
2022-09-28T07:34:27.911Z,55.50
2022-09-28T07:36:00.946Z,55.37
2022-09-28T07:37:32.693Z,55.42
2022-09-28T07:39:04.247Z,55.33
2022-09-28T07:40:54.576Z,55.18
2022-09-28T07:42:29.854Z,55.28
2022-09-28T07:44:06.395Z,55.27
2022-09-28T07:45:38.610Z,55.31
2022-09-28T07:47:10.205Z,55.35
2022-09-28T07:48:42.394Z,55.26
2022-09-28T07:50:14.019Z,55.31
2022-09-28T07:51:45.627Z,55.43
2022-09-28T07:53:17.773Z,55.14
2022-09-28T07:54:52.361Z,55.00
2022-09-28T07:56:24.250Z,54.72
2022-09-28T07:57:56.513Z,54.52
2022-09-28T07:59:28.147Z,54.56
2022-09-28T08:01:02.588Z,54.48
2022-09-28T08:02:35.561Z,54.50
2022-09-28T08:04:07.218Z,54.52
2022-09-28T08:05:39.233Z,54.64
2022-09-28T08:07:11.481Z,54.65
2022-09-28T08:08:44.900Z,54.49
2022-09-28T08:10:17.597Z,54.56
2022-09-28T08:11:50.132Z,54.37
2022-09-28T08:13:23.543Z,54.45
2022-09-28T08:15:00.263Z,54.17
2022-09-28T08:16:32.682Z,54.37
2022-09-28T08:18:04.671Z,54.19
2022-09-28T08:19:55.122Z,54.05
2022-09-28T08:21:45.298Z,54.09
2022-09-28T08:23:17.242Z,54.03
2022-09-28T08:24:49.422Z,53.92
2022-09-28T08:26:21.134Z,54.15
2022-09-28T08:27:52.666Z,54.17
2022-09-28T08:29:24.217Z,53.86
2022-09-28T08:30:55.854Z,53.71
2022-09-28T08:32:27.615Z,53.82
2022-09-28T08:33:59.311Z,53.99
2022-09-28T08:35:31.679Z,53.95
2022-09-28T08:37:03.494Z,54.02
2022-09-28T08:38:35.117Z,53.95
2022-09-28T08:40:07.011Z,53.88
2022-09-28T08:42:10.800Z,53.88
2022-09-28T08:43:54.555Z,53.56
2022-09-28T08:45:26.764Z,53.51
2022-09-28T08:47:05.364Z,53.27
2022-09-28T08:49:13.515Z,53.18
2022-09-28T08:50:56.723Z,53.22
2022-09-28T08:52:29.570Z,52.87
2022-09-28T08:54:08.161Z,52.98
2022-09-28T08:55:42.873Z,52.96
2022-09-28T08:57:20.694Z,52.80
2022-09-28T08:58:53.243Z,52.85
2022-09-28T09:00:46.935Z,52.72
2022-09-28T09:02:21.247Z,52.49
2022-09-28T09:03:53.036Z,52.40
2022-09-28T09:05:27.066Z,52.26
2022-09-28T09:07:14.438Z,52.26
2022-09-28T09:08:46.463Z,52.05
2022-09-28T09:10:18.267Z,52.09
2022-09-28T09:11:57.524Z,52.00
2022-09-28T09:13:48.055Z,51.75
2022-09-28T09:15:29.054Z,51.54
2022-09-28T09:17:01.190Z,51.19
2022-09-28T09:18:36.367Z,50.97
2022-09-28T09:20:25.429Z,50.72
2022-09-28T09:22:05.432Z,50.64
2022-09-28T09:23:38.564Z,50.63
2022-09-28T09:25:20.541Z,50.22
2022-09-28T09:26:54.873Z,50.16
2022-09-28T09:28:33.958Z,49.92
2022-09-28T09:30:12.857Z,49.66
2022-09-28T09:32:07.819Z,49.80
2022-09-28T09:33:54.824Z,49.36
2022-09-28T09:35:30.705Z,49.12
2022-09-28T09:37:05.951Z,49.31
2022-09-28T09:39:01.056Z,49.08
2022-09-28T09:40:41.211Z,49.11
2022-09-28T09:42:31.876Z,48.91
2022-09-28T09:44:22.606Z,48.42
2022-09-28T09:45:54.738Z,48.45
2022-09-28T09:47:46.754Z,48.35
2022-09-28T09:49:20.760Z,48.10
2022-09-28T09:50:59.546Z,47.99
2022-09-28T09:52:37.767Z,47.96
2022-09-28T09:54:31.942Z,47.93
2022-09-28T09:56:23.463Z,47.76
2022-09-28T09:57:57.099Z,47.80
2022-09-28T09:59:32.212Z,47.38
2022-09-28T10:01:11.418Z,47.43
2022-09-28T10:02:44.312Z,47.13
2022-09-28T10:04:18.195Z,46.93
2022-09-28T10:05:56.197Z,46.80
2022-09-28T10:07:33.834Z,46.83
2022-09-28T10:09:06.706Z,46.35
2022-09-28T10:10:40.452Z,46.45
2022-09-28T10:12:15.253Z,46.42
2022-09-28T10:13:49.360Z,45.89
2022-09-28T10:15:25.428Z,46.07
2022-09-28T10:16:57.155Z,46.18
2022-09-28T10:18:28.983Z,46.04
2022-09-28T10:20:00.613Z,45.75
2022-09-28T10:21:37.743Z,45.64
2022-09-28T10:23:22.927Z,45.44
2022-09-28T10:24:57.261Z,45.40
2022-09-28T10:26:39.225Z,45.13
2022-09-28T10:28:10.997Z,45.02
2022-09-28T10:30:15.485Z,44.90
2022-09-28T10:31:51.160Z,44.82
2022-09-28T10:33:32.781Z,44.75
2022-09-28T10:35:19.832Z,44.68
2022-09-28T10:36:56.503Z,44.47
2022-09-28T10:38:28.605Z,44.22
2022-09-28T10:40:00.297Z,44.19
2022-09-28T10:41:32.375Z,44.30
2022-09-28T10:43:05.326Z,44.28
2022-09-28T10:44:57.604Z,43.90
2022-09-28T10:46:29.342Z,43.80
2022-09-28T10:48:01.865Z,43.90
2022-09-28T10:49:46.546Z,43.47
2022-09-28T10:51:19.042Z,43.67
2022-09-28T10:52:52.387Z,43.28
2022-09-28T10:54:25.675Z,43.18
2022-09-28T10:55:59.351Z,42.99
2022-09-28T10:57:34.723Z,42.92
2022-09-28T10:59:24.910Z,42.90
2022-09-28T11:01:03.759Z,42.78
2022-09-28T11:02:36.329Z,42.83
2022-09-28T11:04:17.126Z,42.86
2022-09-28T11:05:58.089Z,42.56
2022-09-28T11:07:33.740Z,42.91
2022-09-28T11:09:20.245Z,42.79
2022-09-28T11:11:01.764Z,42.43
2022-09-28T11:12:36.322Z,42.44
2022-09-28T11:14:17.293Z,42.39
2022-09-28T11:15:50.376Z,42.36
2022-09-28T11:17:26.460Z,42.33
2022-09-28T11:18:58.851Z,42.31
2022-09-28T11:20:31.896Z,42.27
2022-09-28T11:22:03.596Z,41.80
2022-09-28T11:23:35.299Z,41.99
2022-09-28T11:25:14.363Z,41.92
2022-09-28T11:26:46.687Z,41.76
2022-09-28T11:28:25.233Z,41.87
2022-09-28T11:29:59.976Z,41.73
2022-09-28T11:31:31.565Z,41.59
2022-09-28T11:33:12.720Z,41.59
2022-09-28T11:34:58.517Z,41.82
2022-09-28T11:36:43.403Z,41.71
2022-09-28T11:38:17.667Z,41.75
2022-09-28T11:39:49.302Z,41.72
2022-09-28T11:41:24.217Z,41.79
2022-09-28T11:43:01.948Z,41.50
2022-09-28T11:44:37.536Z,41.32
2022-09-28T11:46:14.842Z,41.18
2022-09-28T11:47:49.630Z,41.24
2022-09-28T11:49:27.417Z,41.19
2022-09-28T11:51:00.339Z,41.50
2022-09-28T11:52:37.275Z,41.13
2022-09-28T11:54:20.223Z,41.16
2022-09-28T11:55:57.228Z,40.86
2022-09-28T11:57:29.937Z,40.83
2022-09-28T11:59:11.369Z,41.07
2022-09-28T12:00:46.758Z,41.08
2022-09-28T12:02:23.607Z,40.98
2022-09-28T12:03:56.621Z,40.65
2022-09-28T12:05:29.214Z,40.88
2022-09-28T12:07:04.500Z,40.78
2022-09-28T12:08:37.562Z,40.79
2022-09-28T12:10:17.510Z,40.31
2022-09-28T12:11:50.149Z,40.44
2022-09-28T12:13:31.349Z,40.34
2022-09-28T12:15:26.314Z,40.23
2022-09-28T12:17:20.276Z,40.22
2022-09-28T12:18:58.007Z,40.25
2022-09-28T12:20:31.354Z,40.29
2022-09-28T12:22:10.519Z,40.21
2022-09-28T12:23:42.199Z,40.38
2022-09-28T12:25:14.768Z,40.06
2022-09-28T12:26:48.489Z,40.28
2022-09-28T12:28:19.984Z,39.92
2022-09-28T12:30:01.063Z,39.92
2022-09-28T12:31:38.728Z,39.98
2022-09-28T12:33:15.257Z,39.89
2022-09-28T12:34:46.856Z,39.96
2022-09-28T12:36:28.583Z,39.64
2022-09-28T12:38:32.732Z,39.81
2022-09-28T12:40:13.241Z,39.79
2022-09-28T12:42:00.019Z,39.85
2022-09-28T12:43:53.588Z,39.90
2022-09-28T12:46:09.774Z,40.17
2022-09-28T12:47:54.319Z,40.22
2022-09-28T12:50:36.640Z,39.95
2022-09-28T12:51:39.430Z,39.83
2022-09-28T12:53:14.139Z,40.21
2022-09-28T12:55:05.058Z,40.08
2022-09-28T12:56:41.585Z,40.14
2022-09-28T12:58:18.935Z,40.02
2022-09-28T13:00:01.394Z,40.13
2022-09-28T13:01:43.683Z,39.74
2022-09-28T13:03:35.383Z,39.74
2022-09-28T13:05:16.394Z,39.94
2022-09-28T13:07:00.263Z,39.76
2022-09-28T13:08:37.777Z,39.71
2022-09-28T13:10:16.921Z,39.99
2022-09-28T13:12:07.591Z,39.92
2022-09-28T13:13:51.947Z,39.76
2022-09-28T13:15:28.158Z,39.64
2022-09-28T13:17:00.745Z,39.93
2022-09-28T13:18:39.148Z,39.89
2022-09-28T13:20:13.442Z,39.37
2022-09-28T13:21:52.053Z,39.31
2022-09-28T13:23:31.399Z,39.55
2022-09-28T13:25:04.003Z,39.67
2022-09-28T13:26:40.759Z,39.50
2022-09-28T13:28:13.097Z,39.07
2022-09-28T13:29:45.692Z,39.12
2022-09-28T13:31:30.868Z,39.15
2022-09-28T13:33:04.449Z,38.84
2022-09-28T13:34:36.574Z,38.94
2022-09-28T13:36:29.432Z,38.83
2022-09-28T13:38:16.700Z,38.74
2022-09-28T13:39:52.587Z,38.45
2022-09-28T13:41:33.579Z,38.40
2022-09-28T13:43:09.803Z,38.42
2022-09-28T13:44:48.052Z,38.18
2022-09-28T13:46:29.211Z,38.29
2022-09-28T13:48:16.654Z,38.21
2022-09-28T13:49:51.652Z,38.22
2022-09-28T13:51:31.108Z,37.94
2022-09-28T13:53:06.613Z,38.24
2022-09-28T13:54:53.538Z,38.14
2022-09-28T13:56:43.722Z,38.12
2022-09-28T13:58:18.057Z,37.98
2022-09-28T13:59:52.274Z,37.95
2022-09-28T14:01:29.084Z,37.79
2022-09-28T14:03:06.581Z,37.70
2022-09-28T14:04:53.487Z,37.97
2022-09-28T14:06:26.224Z,37.68
2022-09-28T14:08:09.779Z,37.92
2022-09-28T14:09:48.675Z,37.94
2022-09-28T14:11:25.100Z,37.78
2022-09-28T14:12:56.816Z,37.71
2022-09-28T14:14:48.746Z,37.75
2022-09-28T14:16:23.838Z,37.68
2022-09-28T14:17:55.585Z,37.25
2022-09-28T14:19:32.098Z,37.53
2022-09-28T14:21:12.575Z,37.75
2022-09-28T14:22:44.585Z,37.65
2022-09-28T14:24:31.479Z,37.69
2022-09-28T14:26:07.028Z,37.73
2022-09-28T14:27:47.727Z,37.52
2022-09-28T14:29:39.553Z,37.49
2022-09-28T14:31:15.785Z,37.57
2022-09-28T14:32:58.160Z,37.49
2022-09-28T14:34:34.403Z,37.89
2022-09-28T14:36:06.759Z,37.40
2022-09-28T14:38:14.314Z,37.42
2022-09-28T14:40:04.780Z,37.62
2022-09-28T14:41:36.975Z,37.46
2022-09-28T14:43:20.884Z,37.26
2022-09-28T14:45:07.047Z,37.41
2022-09-28T14:46:48.396Z,37.48
2022-09-28T14:48:21.293Z,37.61
2022-09-28T14:49:59.883Z,37.69
2022-09-28T14:51:33.235Z,37.52
2022-09-28T14:53:05.711Z,37.64
2022-09-28T14:54:42.066Z,37.57
2022-09-28T14:56:13.994Z,37.51
2022-09-28T14:57:46.672Z,37.71
2022-09-28T14:59:24.969Z,37.77
2022-09-28T15:01:02.238Z,37.92
2022-09-28T15:02:33.938Z,37.94
2022-09-28T15:04:05.555Z,38.01
2022-09-28T15:05:44.365Z,37.72
2022-09-28T15:07:27.041Z,37.81
2022-09-28T15:08:58.754Z,38.01
2022-09-28T15:10:33.903Z,38.11
2022-09-28T15:12:07.751Z,38.07
2022-09-28T15:13:40.958Z,38.06
2022-09-28T15:15:19.586Z,38.12
2022-09-28T15:16:51.343Z,38.03
2022-09-28T15:18:44.092Z,38.15
2022-09-28T15:20:20.662Z,38.15
2022-09-28T15:21:52.151Z,38.01
2022-09-28T15:23:43.377Z,38.43
2022-09-28T15:25:16.928Z,38.31
2022-09-28T15:26:48.517Z,38.43
2022-09-28T15:28:22.750Z,38.25
2022-09-28T15:29:58.370Z,38.09
2022-09-28T15:31:30.624Z,38.15
2022-09-28T15:33:21.483Z,38.15
2022-09-28T15:34:54.686Z,38.35
2022-09-28T15:36:26.817Z,38.33
2022-09-28T15:43:30.324Z,38.40
2022-09-28T15:45:03.459Z,38.63
2022-09-28T15:46:36.784Z,38.55
2022-09-28T15:48:21.033Z,38.77
2022-09-28T15:50:02.159Z,38.76
2022-09-28T15:51:45.207Z,38.86
2022-09-28T15:53:17.624Z,38.98
2022-09-28T15:54:49.344Z,38.68
2022-09-28T15:56:20.860Z,38.88
2022-09-28T15:58:05.174Z,39.17
2022-09-28T15:59:39.673Z,39.19
2022-09-28T16:01:20.203Z,39.03
2022-09-28T16:03:05.592Z,39.20
2022-09-28T16:04:43.530Z,39.21
2022-09-28T16:06:15.160Z,39.11
2022-09-28T16:07:56.029Z,39.34
2022-09-28T16:09:33.158Z,39.25
2022-09-28T16:11:16.872Z,39.44
2022-09-28T16:12:56.560Z,39.32
2022-09-28T16:14:28.853Z,39.43
2022-09-28T16:16:00.796Z,39.51
2022-09-28T16:17:34.147Z,39.42
2022-09-28T16:19:05.690Z,39.57
2022-09-28T16:20:38.009Z,39.75
2022-09-28T16:22:10.051Z,39.70
2022-09-28T16:23:41.618Z,39.47
2022-09-28T16:25:16.698Z,39.76
2022-09-28T16:26:49.313Z,39.53
2022-09-28T16:28:30.391Z,39.74
2022-09-28T16:30:13.225Z,39.75
2022-09-28T16:31:52.690Z,39.94
2022-09-28T16:33:28.280Z,39.96
2022-09-28T16:35:18.816Z,40.00
2022-09-28T16:36:50.776Z,39.72
2022-09-28T16:38:22.281Z,39.82
2022-09-28T16:39:53.960Z,39.91
2022-09-28T16:41:26.295Z,40.02
2022-09-28T16:42:58.675Z,40.08
2022-09-28T16:44:31.974Z,40.00
2022-09-28T16:46:16.241Z,40.13
2022-09-28T16:47:51.972Z,40.17
2022-09-28T16:49:23.690Z,40.14
2022-09-28T16:50:55.569Z,40.29
2022-09-28T16:52:46.474Z,40.24
2022-09-28T16:54:40.810Z,40.24
2022-09-28T16:56:12.454Z,40.41
2022-09-28T16:57:44.651Z,40.31
2022-09-28T16:59:16.469Z,40.27
2022-09-28T17:00:48.142Z,40.50
2022-09-28T17:02:45.134Z,40.51
2022-09-28T17:04:12.445Z,40.65
2022-09-28T17:05:44.289Z,40.57
2022-09-28T17:07:15.964Z,40.59
2022-09-28T17:08:47.843Z,40.68
2022-09-28T17:10:29.552Z,40.70
2022-09-28T17:12:01.579Z,40.78
2022-09-28T17:13:37.553Z,40.86
2022-09-28T17:15:09.371Z,40.77
2022-09-28T17:18:33.329Z,41.04
2022-09-28T17:20:09.754Z,40.99
2022-09-28T17:21:41.319Z,41.08
2022-09-28T17:23:13.269Z,41.06
2022-09-28T17:24:46.285Z,41.10
2022-09-28T17:26:19.614Z,40.93
2022-09-28T17:27:51.303Z,41.06
2022-09-28T17:29:23.876Z,41.08
2022-09-28T17:30:55.823Z,41.15
2022-09-28T17:32:27.518Z,41.24
2022-09-28T17:33:59.122Z,41.25
2022-09-28T17:35:30.967Z,41.35
2022-09-28T17:37:02.616Z,41.43
2022-09-28T17:38:34.716Z,41.65
2022-09-28T17:40:17.308Z,41.62
2022-09-28T17:41:48.980Z,41.73
2022-09-28T17:43:22.463Z,41.60
2022-09-28T17:44:54.072Z,41.58
2022-09-28T17:46:27.173Z,41.55
2022-09-28T17:47:58.844Z,41.51
2022-09-28T17:49:30.409Z,41.45
2022-09-28T17:51:02.222Z,41.38
2022-09-28T17:52:33.955Z,41.40
2022-09-28T17:54:06.331Z,41.75
2022-09-28T17:55:38.110Z,41.91
2022-09-28T17:57:10.671Z,41.86
2022-09-28T17:58:42.265Z,42.04
2022-09-28T18:00:14.109Z,42.27
2022-09-28T18:01:45.892Z,42.13
2022-09-28T18:03:24.228Z,42.29
2022-09-28T18:04:55.807Z,42.10
2022-09-28T18:06:27.411Z,42.36
2022-09-28T18:07:59.489Z,42.40
2022-09-28T18:09:31.551Z,42.25
2022-09-28T18:11:03.184Z,42.38
2022-09-28T18:12:35.439Z,42.30
2022-09-28T18:14:11.108Z,42.36
2022-09-28T18:15:43.363Z,42.27
2022-09-28T18:17:15.358Z,42.30
2022-09-28T18:18:47.935Z,42.36
2022-09-28T18:20:19.876Z,42.46
2022-09-28T18:21:52.490Z,42.41
2022-09-28T18:23:24.344Z,42.39
2022-09-28T18:24:55.887Z,42.68
2022-09-28T18:26:27.719Z,42.68
2022-09-28T18:28:00.235Z,42.86
2022-09-28T18:29:33.447Z,42.81
2022-09-28T18:31:08.834Z,42.83
2022-09-28T18:32:40.455Z,42.95
2022-09-28T18:34:13.963Z,43.06
2022-09-28T18:35:52.406Z,43.08
2022-09-28T18:37:24.043Z,43.08
2022-09-28T18:38:57.485Z,43.30
2022-09-28T18:40:29.170Z,43.35
2022-09-28T18:42:02.461Z,43.28
2022-09-28T18:43:36.319Z,43.44
2022-09-28T18:45:11.330Z,43.33
2022-09-28T18:46:43.048Z,43.31
2022-09-28T18:48:14.807Z,43.42
2022-09-28T18:49:46.934Z,43.45
2022-09-28T18:51:19.716Z,43.44
2022-09-28T18:52:51.264Z,43.43
2022-09-28T18:54:23.260Z,43.56
2022-09-28T18:55:55.224Z,43.62
2022-09-28T18:57:27.185Z,43.50
2022-09-28T18:59:00.154Z,43.68
2022-09-28T19:00:31.666Z,43.75
2022-09-28T19:02:03.885Z,43.65
2022-09-28T19:03:35.807Z,43.75
2022-09-28T19:05:07.564Z,43.93
2022-09-28T19:06:42.648Z,43.94
2022-09-28T19:08:14.453Z,44.04
2022-09-28T19:09:46.037Z,44.00
2022-09-28T19:11:18.046Z,43.96
2022-09-28T19:12:52.281Z,44.00
2022-09-28T19:14:24.129Z,44.14
2022-09-28T19:15:56.432Z,44.12
2022-09-28T19:17:28.179Z,43.95
2022-09-28T19:19:01.118Z,44.04
2022-09-28T19:20:33.242Z,44.01
2022-09-28T19:22:05.070Z,44.13
2022-09-28T19:23:37.038Z,44.32
2022-09-28T19:25:11.055Z,44.37
2022-09-28T19:26:42.936Z,44.35
2022-09-28T19:28:14.546Z,44.23
2022-09-28T19:29:46.120Z,44.25
2022-09-28T19:34:16.426Z,44.29
2022-09-28T19:35:55.036Z,44.35
2022-09-28T19:37:27.119Z,44.40
2022-09-28T19:39:03.140Z,44.61
2022-09-28T19:40:36.747Z,44.35
2022-09-28T19:42:08.399Z,44.31
2022-09-28T19:43:43.845Z,44.41
2022-09-28T19:45:15.988Z,44.55
2022-09-28T19:46:47.969Z,44.54
2022-09-28T19:48:23.677Z,44.34
2022-09-28T19:49:55.209Z,44.43
2022-09-28T19:51:28.483Z,44.43
2022-09-28T19:53:02.344Z,44.58
2022-09-28T19:54:36.696Z,44.49
2022-09-28T19:56:08.700Z,44.80
2022-09-28T19:57:40.781Z,44.65
2022-09-28T19:59:12.476Z,44.61
2022-09-28T20:00:44.052Z,44.60
2022-09-28T20:02:15.927Z,44.69
2022-09-28T20:03:47.698Z,44.67
2022-09-28T20:05:19.258Z,44.80
2022-09-28T20:06:52.505Z,44.73
2022-09-28T20:08:24.434Z,44.87
2022-09-28T20:09:56.299Z,45.15
2022-09-28T20:11:30.157Z,45.10
2022-09-28T20:13:01.776Z,45.32
2022-09-28T20:14:38.034Z,45.31
2022-09-28T20:16:17.354Z,45.18
2022-09-28T20:17:49.308Z,45.38
2022-09-28T20:19:22.110Z,45.21
2022-09-28T20:21:00.676Z,45.11
2022-09-28T20:22:32.324Z,45.19
2022-09-28T20:24:05.365Z,45.39
2022-09-28T20:25:38.498Z,45.35
2022-09-28T20:27:10.900Z,45.57
2022-09-28T20:28:43.192Z,45.65
2022-09-28T20:30:15.536Z,45.60
2022-09-28T20:31:47.335Z,45.71
2022-09-28T20:33:28.642Z,45.62
2022-09-28T20:35:00.841Z,45.78
2022-09-28T20:36:32.639Z,45.67
2022-09-28T20:38:09.269Z,45.94
2022-09-28T20:39:44.823Z,45.97
2022-09-28T20:41:18.312Z,45.91
2022-09-28T20:42:49.853Z,46.03